Gurleyville, Connecticut
Current Conditions -  °F | °C
As of 8:52 AM on Thursday 27 Nov 2014 (Local Time) from KIJD Reporting Station
Overcast Overcast  
Wind Chill: 30°   Ceiling: 4100
Heat Index: 34°   Visibility: 10mi
Dew Point: 29°   Wind: 5mph
Humidity: 82%   Direction: 260°W
Pressure: 29.96"   Gusts: NA
Location:  41.8004°N, 72.2476°W
Report Text: KIJD 271352Z AUTO 26004KT 10SM BKN041 OVC055 01/M02 A2996 RMK AO2 SLP147 T00111017
Loading
Personal Weather Stations






























Interactive Weather Map New forecast layout! Learn more

10-Day Weather Forecast

Advertisements
Track Severe Weather on mobile